Time;durP1;ratioP1;P1;durP2;ratioP2;P2;SDS_P1;SDS_P2;PMS_P1;PMS_P2;Temp;Humidity;BMP_temperature;BMP_pressure;BME280_temperature;BME280_humidity;BME280_pressure;Samples;Min_cycle;Max_cycle;Signal;HPM_P1;HPM_P2
2022/05/23 00:01:13;;;;;;;3.65;2.60;;;;;;;26.00;38.96;100459.22;5053539;28;20061;-66
2022/05/23 00:03:38;;;;;;;8.23;2.58;;;;;;;25.96;39.18;100455.28;5053085;28;20029;-67
2022/05/23 00:06:05;;;;;;;6.97;2.97;;;;;;;25.94;39.04;100449.19;5053437;28;20021;-65
2022/05/23 00:08:31;;;;;;;11.52;2.80;;;;;;;25.93;38.35;100447.53;5052376;28;20040;-67
2022/05/23 00:10:57;;;;;;;7.00;2.53;;;;;;;25.91;38.99;100444.19;5052204;28;20108;-67
2022/05/23 00:13:22;;;;;;;6.85;2.47;;;;;;;25.90;38.94;100442.53;5052082;28;20440;-66
2022/05/23 00:15:48;;;;;;;4.05;2.70;;;;;;;25.87;39.35;100443.00;5053175;28;20024;-67
2022/05/23 00:18:13;;;;;;;5.15;2.80;;;;;;;25.85;38.95;100445.13;5053377;28;20032;-66
2022/05/23 00:20:38;;;;;;;6.28;3.05;;;;;;;25.84;38.88;100440.72;5053149;28;20517;-67
2022/05/23 00:23:04;;;;;;;6.45;3.65;;;;;;;25.80;39.17;100436.78;5039182;28;20064;-67
2022/05/23 00:25:29;;;;;;;6.60;3.60;;;;;;;25.75;39.49;100428.44;5057451;28;20487;-66
2022/05/23 00:27:55;;;;;;;5.50;2.70;;;;;;;25.71;39.19;100421.72;5057343;28;20024;-67
2022/05/23 00:30:23;;;;;;;5.72;2.88;;;;;;;25.67;39.79;100419.72;5057329;28;20021;-67
2022/05/23 00:35:33;;;;;;;4.38;2.35;;;;;;;25.52;39.49;100420.16;5057338;28;20075;-67
2022/05/23 00:37:59;;;;;;;6.57;2.88;;;;;;;25.48;39.89;100416.25;5057091;28;20387;-66
2022/05/23 00:40:30;;;;;;;6.13;2.60;;;;;;;25.45;39.33;100417.53;5057101;28;20518;-67
2022/05/23 00:43:13;;;;;;;4.55;3.00;;;;;;;25.42;39.22;100409.75;5056543;28;20037;-67
2022/05/23 00:45:40;;;;;;;3.33;2.42;;;;;;;25.41;39.61;100415.47;5057042;28;20066;-67
2022/05/23 00:48:06;;;;;;;6.05;2.38;;;;;;;25.40;40.00;100408.31;5056694;28;20028;-66
2022/05/23 00:50:33;;;;;;;6.60;2.65;;;;;;;25.39;40.09;100403.91;5056944;28;20036;-67
2022/05/23 00:52:59;;;;;;;4.40;2.22;;;;;;;25.40;39.78;100398.16;5056838;28;20033;-67
2022/05/23 00:55:29;;;;;;;8.13;2.60;;;;;;;25.40;39.87;100398.16;5055619;28;20028;-66
2022/05/23 00:58:03;;;;;;;7.63;2.75;;;;;;;25.41;39.44;100393.53;5055599;28;20117;-67
2022/05/23 01:00:29;;;;;;;8.68;2.00;;;;;;;25.41;39.97;100399.00;5055164;28;20505;-67
2022/05/23 01:02:56;;;;;;;8.40;2.35;;;;;;;25.40;39.63;100398.16;5056717;28;20029;-67
2022/05/23 01:05:22;;;;;;;4.53;2.60;;;;;;;25.41;39.96;100399.84;5038949;28;20036;-67
2022/05/23 01:07:47;;;;;;;3.10;2.00;;;;;;;25.40;39.63;100402.84;5055371;28;20479;-67
2022/05/23 01:10:13;;;;;;;6.72;2.25;;;;;;;25.40;39.82;100409.13;5021986;28;20044;-66
2022/05/23 01:12:39;;;;;;;4.90;2.33;;;;;;;25.39;39.89;100410.22;5055402;28;20025;-67
2022/05/23 01:15:16;;;;;;;3.95;1.98;;;;;;;25.40;40.20;100411.06;5056312;28;20024;-67
2022/05/23 01:17:41;;;;;;;3.53;1.83;;;;;;;25.40;39.96;100411.06;5056351;28;20017;-67
2022/05/23 01:20:07;;;;;;;2.95;1.83;;;;;;;25.39;39.92;100418.47;5056169;28;20028;-66
2022/05/23 01:22:50;;;;;;;6.03;2.03;;;;;;;25.42;39.87;100428.13;5055050;28;20087;-67
2022/05/23 01:25:26;;;;;;;6.35;1.58;;;;;;;25.41;39.54;100423.69;5056342;28;20029;-67
2022/05/23 01:27:52;;;;;;;3.00;1.83;;;;;;;25.44;39.67;100420.47;5056053;28;20545;-67
2022/05/23 01:30:18;;;;;;;5.53;2.30;;;;;;;25.47;39.90;100428.28;5056074;28;20033;-67
2022/05/23 01:32:43;;;;;;;3.88;1.90;;;;;;;25.51;40.05;100426.75;5055665;28;20024;-67
2022/05/23 01:35:10;;;;;;;5.68;2.10;;;;;;;25.55;39.96;100422.44;5054235;28;20028;-66
2022/05/23 01:37:35;;;;;;;5.00;1.90;;;;;;;25.57;40.17;100419.47;5056181;28;20104;-67
2022/05/23 01:40:02;;;;;;;3.08;1.58;;;;;;;25.57;40.17;100409.34;5056035;28;20386;-67
2022/05/23 01:42:27;;;;;;;4.13;2.13;;;;;;;25.57;39.86;100403.84;5054748;28;20072;-67
2022/05/23 01:44:53;;;;;;;7.10;2.03;;;;;;;25.56;39.92;100404.06;5055617;28;20032;-67
2022/05/23 01:47:19;;;;;;;3.20;2.13;;;;;;;25.52;40.21;100400.97;5054680;28;20033;-67
2022/05/23 01:49:45;;;;;;;4.53;2.05;;;;;;;25.47;40.18;100406.31;5055803;28;20032;-66
2022/05/23 01:52:10;;;;;;;2.95;1.60;;;;;;;25.42;40.42;100401.53;5055808;28;20017;-67
2022/05/23 01:54:37;;;;;;;3.58;2.63;;;;;;;25.40;40.76;100391.88;5055707;28;20025;-67
2022/05/23 01:57:03;;;;;;;3.42;1.95;;;;;;;25.36;41.01;100390.66;5055507;28;20036;-67
2022/05/23 02:02:13;;;;;;;6.75;2.35;;;;;;;25.24;40.84;100384.31;5055804;28;20133;-67
2022/05/23 02:04:38;;;;;;;4.57;1.98;;;;;;;25.18;40.91;100385.28;5055671;28;20060;-68
2022/05/23 02:07:05;;;;;;;4.80;2.15;;;;;;;25.14;40.90;100373.09;5037432;28;20028;-67
2022/05/23 02:09:31;;;;;;;3.45;2.00;;;;;;;25.09;41.23;100367.50;5055278;28;20032;-67
2022/05/23 02:11:57;;;;;;;4.18;2.00;;;;;;;25.05;41.05;100369.00;5054206;28;20024;-67
2022/05/23 02:14:22;;;;;;;2.63;1.83;;;;;;;24.99;41.47;100372.69;5054079;28;20025;-67
2022/05/23 02:16:47;;;;;;;4.25;1.67;;;;;;;24.95;41.80;100357.81;5054986;28;20025;-66
2022/05/23 02:19:13;;;;;;;3.45;2.08;;;;;;;24.89;41.51;100356.81;5055105;28;20024;-66
2022/05/23 02:21:38;;;;;;;5.18;1.77;;;;;;;24.85;41.29;100358.34;5053954;28;20104;-67
2022/05/23 02:24:04;;;;;;;3.72;2.00;;;;;;;24.80;41.51;100350.84;5053921;28;20395;-66
2022/05/23 02:26:31;;;;;;;4.63;2.30;;;;;;;24.76;41.35;100352.34;5055085;28;20490;-67
2022/05/23 02:28:56;;;;;;;6.05;2.15;;;;;;;24.73;41.52;100363.78;5054943;28;20485;-67
2022/05/23 02:31:22;;;;;;;2.72;1.58;;;;;;;24.73;41.42;100357.47;5054858;28;20021;-67
2022/05/23 02:33:48;;;;;;;3.60;2.08;;;;;;;24.70;42.07;100349.72;5055015;28;20032;-67
2022/05/23 02:36:13;;;;;;;3.30;1.73;;;;;;;24.69;42.24;100354.34;5053914;28;20100;-67
2022/05/23 02:38:38;;;;;;;3.28;1.90;;;;;;;24.69;42.17;100357.09;5054954;28;20025;-67
2022/05/23 02:41:04;;;;;;;2.58;1.40;;;;;;;24.66;42.07;100346.59;5054780;28;20017;-67
2022/05/23 02:43:30;;;;;;;5.22;1.80;;;;;;;24.66;42.06;100340.28;5053529;28;20035;-67
2022/05/23 02:45:55;;;;;;;2.45;1.73;;;;;;;24.65;42.04;100331.22;5053836;28;20029;-67
2022/05/23 02:48:21;;;;;;;4.72;1.98;;;;;;;24.64;41.95;100331.47;5053310;28;20024;-67
2022/05/23 02:50:46;;;;;;;3.33;1.55;;;;;;;24.63;42.59;100318.81;5054461;28;20056;-67
2022/05/23 02:53:11;;;;;;;2.45;1.83;;;;;;;24.60;42.09;100320.13;5054477;28;20108;-66
2022/05/23 02:55:37;;;;;;;2.33;2.00;;;;;;;24.55;41.90;100317.25;5054566;28;20074;-66
2022/05/23 02:58:02;;;;;;;4.55;1.83;;;;;;;24.53;42.80;100302.13;5054606;28;20478;-68
2022/05/23 03:00:27;;;;;;;2.70;1.55;;;;;;;24.47;42.18;100306.63;5054277;28;20041;-67
2022/05/23 03:03:02;;;;;;;3.17;1.98;;;;;;;24.43;42.48;100302.66;5054419;28;20059;-67
2022/05/23 03:05:46;;;;;;;4.25;1.77;;;;;;;24.39;42.72;100298.75;5054465;28;20035;-67
2022/05/23 03:08:13;;;;;;;4.25;1.98;;;;;;;24.34;43.02;100290.41;5053380;28;20474;-66
2022/05/23 03:10:39;;;;;;;9.48;2.25;;;;;;;24.30;42.72;100283.69;5054358;28;20025;-67
2022/05/23 03:13:05;;;;;;;3.40;2.35;;;;;;;24.27;42.55;100281.41;5054239;28;20032;-67
2022/05/23 03:15:31;;;;;;;3.25;1.75;;;;;;;24.23;42.96;100280.22;5052997;28;20048;-68
2022/05/23 03:17:57;;;;;;;6.90;1.73;;;;;;;24.17;43.25;100275.69;5053238;28;20029;-67
2022/05/23 03:20:22;;;;;;;8.95;2.67;;;;;;;24.11;43.28;100266.47;5053049;28;20017;-67
2022/05/23 03:28:15;;;;;;;3.78;1.80;;;;;;;24.01;43.45;100249.72;5053096;28;20040;-67
2022/05/23 03:30:41;;;;;;;2.85;1.67;;;;;;;23.98;43.46;100238.44;5052756;28;20490;-66
2022/05/23 03:33:07;;;;;;;3.55;2.05;;;;;;;23.94;43.30;100232.56;5052688;28;20040;-66
2022/05/23 03:35:33;;;;;;;3.88;2.20;;;;;;;23.96;42.83;100229.59;5054354;28;20391;-67
2022/05/23 03:37:58;;;;;;;2.38;1.83;;;;;;;23.94;42.92;100229.00;5053783;28;20027;-67
2022/05/23 03:40:25;;;;;;;3.45;1.98;;;;;;;23.95;42.79;100217.84;5053572;28;20013;-66
2022/05/23 03:42:50;;;;;;;3.65;1.65;;;;;;;23.96;43.02;100208.53;5052882;28;20040;-66
2022/05/23 03:45:16;;;;;;;5.55;1.92;;;;;;;23.96;43.18;100208.53;5054059;28;20035;-67
2022/05/23 03:47:41;;;;;;;2.80;2.08;;;;;;;23.98;43.89;100205.59;5052588;28;20103;-67
2022/05/23 03:50:08;;;;;;;4.30;1.80;;;;;;;23.99;43.90;100196.28;5052407;28;20625;-67
2022/05/23 03:52:33;;;;;;;2.85;1.83;;;;;;;24.02;43.74;100190.34;5053830;28;20029;-67
2022/05/23 03:54:59;;;;;;;2.42;1.60;;;;;;;24.04;43.20;100186.31;5053831;28;20108;-67
2022/05/23 03:57:24;;;;;;;4.05;1.75;;;;;;;24.07;43.12;100188.59;5052101;28;20036;-67
2022/05/23 03:59:50;;;;;;;4.82;2.08;;;;;;;24.09;43.20;100191.13;5052148;28;20024;-67
2022/05/23 04:02:15;;;;;;;4.20;2.03;;;;;;;24.11;43.36;100191.75;5052662;28;20017;-67
2022/05/23 04:04:40;;;;;;;5.55;2.10;;;;;;;24.13;43.87;100186.88;5035850;28;20024;-67
2022/05/23 04:07:07;;;;;;;2.15;1.92;;;;;;;24.15;42.88;100192.94;5053779;28;20040;-67
2022/05/23 04:09:33;;;;;;;5.03;2.40;;;;;;;24.18;43.25;100185.09;5053618;28;20024;-67
2022/05/23 04:11:58;;;;;;;4.03;1.65;;;;;;;24.22;43.13;100180.00;5052544;28;20471;-68
2022/05/23 04:14:28;;;;;;;3.88;2.10;;;;;;;24.23;42.85;100176.19;5051935;28;20470;-67
2022/05/23 04:16:53;;;;;;;3.97;1.67;;;;;;;24.24;42.75;100173.22;5052222;28;20033;-66
2022/05/23 04:19:19;;;;;;;4.10;1.98;;;;;;;24.27;43.77;100166.44;5053238;28;20087;-67
2022/05/23 04:21:46;;;;;;;4.30;1.95;;;;;;;24.26;43.63;100170.25;5053501;28;20024;-67
2022/05/23 04:24:12;;;;;;;5.18;1.90;;;;;;;24.26;43.50;100159.31;5052088;28;20029;-67
2022/05/23 04:26:38;;;;;;;2.72;1.80;;;;;;;24.25;42.70;100157.63;5053201;28;20040;-67
2022/05/23 04:29:06;;;;;;;8.95;2.00;;;;;;;24.24;43.26;100145.00;5053377;28;20383;-67
2022/05/23 04:31:32;;;;;;;5.70;1.95;;;;;;;24.24;43.20;100151.31;5053075;28;20406;-67
2022/05/23 04:36:42;;;;;;;4.80;1.63;;;;;;;24.25;43.71;100141.22;5052292;28;20091;-67
2022/05/23 04:39:08;;;;;;;3.55;1.60;;;;;;;24.26;43.19;100148.34;5053231;28;20027;-67
2022/05/23 04:41:33;;;;;;;3.97;1.75;;;;;;;24.28;43.08;100147.06;5052045;28;20021;-67
2022/05/23 04:43:59;;;;;;;3.20;1.75;;;;;;;24.30;43.67;100149.53;5052942;28;20028;-67
2022/05/23 04:46:25;;;;;;;2.25;1.65;;;;;;;24.32;43.42;100141.91;5053090;28;20064;-67
2022/05/23 04:51:34;;;;;;;5.57;2.10;;;;;;;24.38;43.36;100134.66;5053096;28;20024;-66
2022/05/23 04:54:00;;;;;;;3.17;1.70;;;;;;;24.42;42.87;100127.66;5053226;28;20037;-67
2022/05/23 04:56:27;;;;;;;2.08;1.73;;;;;;;24.50;43.00;100133.63;5053051;28;20067;-67
2022/05/23 04:58:52;;;;;;;2.17;1.63;;;;;;;24.56;43.58;100121.72;5052832;28;20486;-67
2022/05/23 05:01:18;;;;;;;6.88;2.15;;;;;;;24.63;42.63;100127.06;5053215;28;20041;-67
2022/05/23 05:03:43;;;;;;;4.30;2.20;;;;;;;24.66;42.73;100126.59;5051569;28;20029;-67
2022/05/23 05:06:09;;;;;;;2.42;2.00;;;;;;;24.68;42.84;100122.53;5053496;28;20107;-66
2022/05/23 05:08:35;;;;;;;2.08;1.85;;;;;;;24.68;42.94;100119.81;5053503;28;20478;-67
2022/05/23 05:11:03;;;;;;;2.60;2.20;;;;;;;24.70;43.35;100120.41;5055416;28;20035;-67
2022/05/23 05:13:29;;;;;;;3.55;2.17;;;;;;;24.72;42.74;100109.22;5056846;28;20071;-67
2022/05/23 05:16:00;;;;;;;10.65;2.72;;;;;;;24.76;42.47;100096.72;5055491;28;20368;-67
2022/05/23 05:18:26;;;;;;;6.88;2.22;;;;;;;24.80;42.75;100098.75;5055172;28;20020;-67
2022/05/23 05:20:52;;;;;;;3.03;2.38;;;;;;;24.84;42.91;100091.75;5055169;28;20415;-67
2022/05/23 05:23:17;;;;;;;2.92;1.85;;;;;;;24.87;43.16;100084.94;5056386;28;20025;-67
2022/05/23 05:25:43;;;;;;;7.30;2.17;;;;;;;24.89;42.82;100080.88;5055048;28;20025;-68
2022/05/23 05:28:08;;;;;;;12.23;2.53;;;;;;;24.92;42.75;100078.72;5056345;28;20024;-67
2022/05/23 05:30:39;;;;;;;4.18;2.28;;;;;;;24.95;42.94;100076.34;5054860;28;20021;-67
2022/05/23 05:33:09;;;;;;;3.67;2.70;;;;;;;24.95;42.82;100072.78;5054839;28;20028;-67
2022/05/23 05:35:39;;;;;;;4.03;3.10;;;;;;;24.97;42.66;100071.44;5055109;28;20017;-67
2022/05/23 05:38:13;;;;;;;2.42;2.15;;;;;;;24.98;43.02;100070.38;5054578;28;20017;-67
2022/05/23 05:40:39;;;;;;;5.90;2.42;;;;;;;24.99;42.72;100068.44;5054424;28;20075;-67
2022/05/23 05:43:11;;;;;;;4.15;2.05;;;;;;;25.00;42.64;100072.88;5054645;28;20028;-66
2022/05/23 05:45:41;;;;;;;2.50;2.13;;;;;;;25.03;42.62;100066.91;5055798;28;20460;-67
2022/05/23 05:48:07;;;;;;;8.13;2.85;;;;;;;25.06;42.01;100055.47;5054828;28;20257;-67
2022/05/23 05:50:35;;;;;;;5.38;2.20;;;;;;;25.08;42.27;100054.16;5054576;28;20025;-67
2022/05/23 05:53:04;;;;;;;5.50;2.05;;;;;;;25.14;42.54;100052.34;5054672;28;20025;-67
2022/05/23 05:55:30;;;;;;;5.18;2.20;;;;;;;25.13;42.32;100039.69;5055706;28;20048;-67
2022/05/23 05:57:56;;;;;;;4.93;2.67;;;;;;;25.15;41.59;100037.56;5055952;28;20492;-67
2022/05/23 06:00:21;;;;;;;6.03;2.05;;;;;;;25.15;42.08;100037.56;5054142;28;20493;-67
2022/05/23 06:02:47;;;;;;;11.27;2.30;;;;;;;25.17;42.34;100043.63;5055389;28;20052;-67
2022/05/23 06:05:12;;;;;;;4.88;2.20;;;;;;;25.19;42.26;100039.56;5054329;28;20135;-67
2022/05/23 06:13:05;;;;;;;4.55;2.85;;;;;;;25.21;41.90;100044.81;5055423;28;20063;-68
2022/05/23 06:15:32;;;;;;;2.25;1.85;;;;;;;25.27;41.94;100046.56;5055341;28;20060;-67
2022/05/23 06:17:58;;;;;;;3.17;1.90;;;;;;;25.28;41.81;100048.25;5054112;28;20058;-67
2022/05/23 06:20:24;;;;;;;5.97;2.30;;;;;;;25.31;41.96;100042.28;5053945;28;20433;-67
2022/05/23 06:22:50;;;;;;;5.35;1.98;;;;;;;25.35;41.61;100044.25;5053980;28;20033;-66
2022/05/23 06:25:16;;;;;;;4.35;2.15;;;;;;;25.42;41.82;100039.47;5054063;28;20129;-67
2022/05/23 06:27:42;;;;;;;5.53;2.50;;;;;;;25.52;41.61;100049.03;5053420;28;20434;-67
2022/05/23 06:30:09;;;;;;;4.60;2.17;;;;;;;25.57;41.61;100052.69;5054131;28;20029;-67
2022/05/23 06:32:35;;;;;;;4.88;1.92;;;;;;;25.62;41.19;100044.56;5053657;28;20031;-68
2022/05/23 06:35:00;;;;;;;3.65;2.05;;;;;;;25.69;41.48;100039.72;5053532;28;20021;-67
2022/05/23 06:37:26;;;;;;;6.15;2.00;;;;;;;25.75;41.26;100044.22;5054756;28;20033;-67
2022/05/23 06:39:51;;;;;;;6.28;1.90;;;;;;;25.82;41.20;100039.44;5053597;28;20048;-67
2022/05/23 06:42:16;;;;;;;3.15;1.73;;;;;;;25.91;41.38;100034.34;5053563;28;20372;-68
2022/05/23 06:44:42;;;;;;;6.20;2.03;;;;;;;25.98;41.30;100029.53;5054855;28;20109;-68
2022/05/23 06:47:07;;;;;;;5.90;2.72;;;;;;;26.11;40.57;100036.59;5054364;28;20029;-67
2022/05/23 06:49:33;;;;;;;3.15;2.05;;;;;;;26.22;40.89;100031.06;5053417;28;20074;-67
2022/05/23 06:51:59;;;;;;;4.22;1.80;;;;;;;26.44;40.74;100018.22;5054479;28;20021;-68
2022/05/23 06:54:24;;;;;;;4.97;1.70;;;;;;;26.54;41.01;100020.28;5053165;28;20104;-67
2022/05/23 06:56:50;;;;;;;3.13;1.73;;;;;;;26.61;40.71;100023.66;5034425;28;20036;-68
2022/05/23 06:59:17;;;;;;;7.45;2.20;;;;;;;26.68;40.19;100020.75;5034941;28;20021;-68
2022/05/23 07:01:42;;;;;;;8.77;1.67;;;;;;;26.76;40.32;100012.06;5033170;28;20038;-67
2022/05/23 07:04:08;;;;;;;4.82;2.47;;;;;;;26.86;39.83;100007.56;5033849;28;20037;-67
2022/05/23 07:12:20;;;;;;;3.78;2.10;;;;;;;27.02;40.09;99995.69;5032408;28;20040;-67
2022/05/23 07:14:46;;;;;;;5.78;1.48;;;;;;;27.14;39.75;99990.84;5034173;28;20065;-68
2022/05/23 07:17:12;;;;;;;4.97;1.67;;;;;;;27.32;39.43;99983.34;5037937;28;20027;-67
2022/05/23 07:19:39;;;;;;;2.90;2.25;;;;;;;27.53;39.24;99985.22;5053952;28;20029;-67
2022/05/23 07:22:05;;;;;;;3.83;1.65;;;;;;;27.86;39.37;99984.16;5054102;28;20486;-67
2022/05/23 07:24:31;;;;;;;5.20;2.05;;;;;;;28.11;38.98;99987.94;5053887;28;20413;-67
2022/05/23 07:26:57;;;;;;;6.55;2.65;;;;;;;28.43;38.60;99976.88;5036552;28;20086;-67
2022/05/23 07:29:23;;;;;;;4.22;1.85;;;;;;;28.57;39.05;99978.06;5053351;28;20029;-67
2022/05/23 07:31:49;;;;;;;4.85;1.58;;;;;;;28.73;38.96;99981.75;5054123;28;20024;-67
2022/05/23 07:34:15;;;;;;;2.85;1.95;;;;;;;28.81;37.95;99981.25;5054015;28;20037;-67
2022/05/23 07:36:40;;;;;;;4.57;1.85;;;;;;;28.88;38.74;99977.16;5053351;28;20029;-67
2022/05/23 07:39:09;;;;;;;4.55;1.48;;;;;;;28.93;38.57;99984.59;5052794;28;20471;-67
2022/05/23 07:41:35;;;;;;;5.75;1.58;;;;;;;28.95;38.54;99984.34;5054519;28;20025;-67
2022/05/23 07:44:00;;;;;;;2.33;1.50;;;;;;;28.91;38.34;99989.56;5053724;28;20558;-67
2022/05/23 07:46:26;;;;;;;6.80;2.10;;;;;;;28.88;38.44;99976.31;5054228;28;20056;-68
2022/05/23 07:48:51;;;;;;;7.00;1.85;;;;;;;28.89;37.95;99972.47;5052757;28;20079;-67
2022/05/23 07:51:19;;;;;;;3.97;1.42;;;;;;;28.98;38.05;99973.56;5052904;28;20031;-67
2022/05/23 08:01:57;;;;;;;5.43;1.70;;;;;;;30.17;36.90;99962.19;5052473;28;20060;-67
2022/05/23 08:04:22;;;;;;;2.53;1.67;;;;;;;30.07;36.55;99967.69;5043144;28;20025;-67
2022/05/23 08:06:48;;;;;;;2.97;1.35;;;;;;;30.04;36.66;99968.25;5033505;28;20037;-67
2022/05/23 08:09:14;;;;;;;4.45;1.65;;;;;;;30.03;36.77;99955.56;5032265;28;20399;-66
2022/05/23 08:11:42;;;;;;;3.75;1.60;;;;;;;30.04;36.77;99957.19;5033375;28;20193;-68
2022/05/23 08:14:08;;;;;;;13.23;2.25;;;;;;;30.07;36.33;99961.38;5032677;28;20429;-67
2022/05/23 08:16:35;;;;;;;4.50;2.13;;;;;;;30.08;36.79;99958.31;5032356;28;20021;-66
2022/05/23 08:19:02;;;;;;;3.83;1.42;;;;;;;30.10;36.58;99961.63;5038227;28;20021;-67
2022/05/23 08:21:28;;;;;;;3.17;1.63;;;;;;;30.12;36.25;99962.19;5053579;28;20043;-67
2022/05/23 08:23:53;;;;;;;7.05;1.55;;;;;;;30.12;36.52;99962.19;5053390;28;20367;-67
2022/05/23 08:26:19;;;;;;;5.53;1.67;;;;;;;30.13;36.28;99961.06;5053282;28;20036;-67
2022/05/23 08:28:44;;;;;;;2.88;1.77;;;;;;;30.16;36.40;99959.69;5053299;28;20025;-67
2022/05/23 08:31:09;;;;;;;6.60;1.80;;;;;;;30.21;36.27;99954.16;5051957;28;20036;-67
2022/05/23 08:33:35;;;;;;;2.80;1.38;;;;;;;30.25;35.68;99950.56;5035385;28;20037;-68
2022/05/23 08:36:00;;;;;;;6.95;1.67;;;;;;;30.29;36.13;99948.06;5053091;28;20021;-67
2022/05/23 08:38:26;;;;;;;5.45;2.13;;;;;;;30.31;36.15;99952.19;5053111;28;20100;-67
2022/05/23 08:41:16;;;;;;;2.88;1.42;;;;;;;30.28;36.33;99951.91;5052896;28;20083;-68
2022/05/23 08:43:57;;;;;;;3.88;1.60;;;;;;;30.32;36.13;99948.31;5053215;28;20031;-66
2022/05/23 08:46:27;;;;;;;4.05;1.60;;;;;;;30.43;35.86;99943.63;5057147;28;20037;-67
2022/05/23 08:49:03;;;;;;;3.47;2.05;;;;;;;30.53;35.85;99933.38;5055926;28;20020;-67
2022/05/23 08:51:37;;;;;;;2.63;1.67;;;;;;;30.69;35.62;99909.22;5056069;28;20025;-67
2022/05/23 08:54:25;;;;;;;2.35;1.88;;;;;;;30.76;35.66;99914.47;5055595;28;20029;-68
2022/05/23 08:56:54;;;;;;;2.75;1.88;;;;;;;30.71;35.35;99901.47;5038926;28;20029;-68
2022/05/23 08:59:29;;;;;;;7.97;1.60;;;;;;;30.72;35.62;99902.31;5056859;28;20032;-68
2022/05/23 09:02:00;;;;;;;4.05;1.80;;;;;;;30.67;35.81;99899.56;5055383;28;20059;-67
2022/05/23 09:04:25;;;;;;;3.35;1.90;;;;;;;30.66;35.89;99901.50;5055586;28;20052;-67
2022/05/23 09:06:51;;;;;;;6.45;2.05;;;;;;;30.74;35.50;99900.09;5056602;28;20067;-67
2022/05/23 09:09:19;;;;;;;3.60;1.60;;;;;;;30.87;35.57;99892.00;5055367;28;20025;-68
2022/05/23 09:11:48;;;;;;;10.48;1.63;;;;;;;31.00;35.51;99896.09;5055271;28;20039;-68
2022/05/23 09:14:16;;;;;;;3.60;1.90;;;;;;;31.19;35.34;99894.31;5056502;28;20017;-67
2022/05/23 09:16:50;;;;;;;5.97;2.88;;;;;;;31.29;34.88;99880.41;5056675;28;20021;-68
2022/05/23 09:19:21;;;;;;;6.13;2.10;;;;;;;31.35;34.69;99882.00;5055905;28;20048;-67
2022/05/23 09:24:38;;;;;;;2.80;2.30;;;;;;;31.64;35.05;99868.22;5042695;28;20043;-68
2022/05/23 09:27:11;;;;;;;4.90;2.70;;;;;;;31.84;34.46;99859.72;5042751;28;20028;-67
2022/05/23 09:29:36;;;;;;;5.25;2.15;;;;;;;32.03;34.26;99855.13;5062485;28;20406;-67
2022/05/23 09:32:07;;;;;;;4.50;1.83;;;;;;;32.08;34.51;99849.50;5041192;28;20017;-67
2022/05/23 09:34:35;;;;;;;7.65;2.28;;;;;;;32.25;34.87;99843.50;5051897;28;20021;-68
2022/05/23 09:37:16;;;;;;;7.25;2.13;;;;;;;33.09;33.52;99841.81;5042846;28;20487;-67
2022/05/23 09:39:55;;;;;;;8.57;2.00;;;;;;;33.34;33.00;99827.53;5042196;28;20112;-67
2022/05/23 09:48:18;;;;;;;5.20;2.28;;;;;;;33.78;33.33;99822.31;5042030;28;20032;-67
2022/05/23 09:50:46;;;;;;;3.53;2.00;;;;;;;34.27;32.96;99810.53;5045399;28;20017;-67
2022/05/23 09:53:24;;;;;;;3.75;2.08;;;;;;;34.72;32.47;99805.97;5042050;28;20060;-68
2022/05/23 09:55:50;;;;;;;4.22;2.00;;;;;;;35.08;31.68;99801.22;5040104;28;20045;-68
2022/05/23 09:58:25;;;;;;;4.38;2.10;;;;;;;35.72;31.48;99804.59;5043170;28;20071;-67
2022/05/23 10:01:10;;;;;;;9.75;8.77;;;;;;;36.46;30.56;99790.78;5040396;28;20056;-68
2022/05/23 10:03:48;;;;;;;10.20;7.28;;;;;;;37.27;30.12;99795.44;5026248;28;20413;-69
2022/05/23 10:06:14;;;;;;;2.15;1.95;;;;;;;38.12;29.02;99785.16;5023681;28;20112;-68
2022/05/23 10:08:40;;;;;;;5.68;2.42;;;;;;;39.36;27.85;99776.88;5039005;28;20423;-68
2022/05/23 10:11:18;;;;;;;5.70;2.40;;;;;;;39.86;26.70;99773.00;5042172;28;20822;-69
2022/05/23 10:13:49;;;;;;;2.97;2.00;;;;;;;39.88;26.92;99776.28;5043392;28;20025;-69
2022/05/23 10:16:29;;;;;;;3.15;2.47;;;;;;;39.74;27.15;99773.00;5041242;28;20146;-69
2022/05/23 10:19:03;;;;;;;5.32;1.95;;;;;;;39.40;28.55;99766.59;5040194;28;20325;-69
2022/05/23 10:21:35;;;;;;;5.00;2.58;;;;;;;39.10;27.88;99767.84;5047925;28;20031;-69
2022/05/23 10:24:10;;;;;;;3.63;1.88;;;;;;;39.10;26.90;99756.66;5047814;28;20025;-70
2022/05/23 10:27:06;;;;;;;2.33;1.75;;;;;;;39.09;27.21;99749.41;5042382;28;20025;-70
2022/05/23 10:29:53;;;;;;;4.00;1.98;;;;;;;39.19;28.02;99742.53;5030310;28;20033;-68
2022/05/23 10:32:41;;;;;;;4.38;2.25;;;;;;;39.13;27.40;99741.13;5037770;28;20056;-68
2022/05/23 10:35:19;;;;;;;4.18;1.90;;;;;;;39.00;27.20;99729.84;5034196;28;20118;-68
2022/05/23 10:37:45;;;;;;;4.28;1.67;;;;;;;38.79;27.75;99728.25;5039991;28;20021;-68
2022/05/23 10:43:35;;;;;;;1.73;1.52;;;;;;;38.42;27.36;99725.25;5041602;28;20028;-67
2022/05/23 10:46:01;;;;;;;3.75;1.65;;;;;;;38.40;27.62;99719.16;4997198;28;20065;-68
2022/05/23 10:48:54;;;;;;;6.30;2.35;;;;;;;38.27;28.37;99723.03;4983767;28;20483;-68
2022/05/23 10:51:44;;;;;;;7.45;3.40;;;;;;;38.61;27.15;99704.34;4985241;28;20512;-68
2022/05/23 10:54:34;;;;;;;4.18;2.97;;;;;;;38.13;28.27;99700.06;4982930;28;20026;-69
2022/05/23 10:57:41;;;;;;;11.73;2.97;;;;;;;38.02;28.36;99682.03;5004297;28;20030;-68
2022/05/23 11:00:14;;;;;;;4.47;2.22;;;;;;;37.81;28.54;99681.97;4974404;28;20042;-68
2022/05/23 11:03:00;;;;;;;;;;;;;;;37.60;28.44;99681.09;4983897;28;20113;-68
2022/05/23 11:05:38;;;;;;;4.07;2.10;;;;;;;37.50;28.78;99672.25;5005039;28;19917;-68
2022/05/23 11:08:21;;;;;;;3.58;2.05;;;;;;;37.25;29.00;99672.00;4982525;28;20033;-68
2022/05/23 11:10:58;;;;;;;3.17;1.88;;;;;;;37.15;28.91;99663.97;5007229;28;20397;-68
2022/05/23 11:13:45;;;;;;;8.55;2.33;;;;;;;38.08;27.62;99661.06;4983774;28;20117;-68
2022/05/23 11:16:44;;;;;;;3.70;2.25;;;;;;;38.64;27.43;99647.66;5007553;28;20509;-69
2022/05/23 11:19:32;;;;;;;4.32;3.25;;;;;;;39.52;27.02;99640.41;5046091;28;20021;-68
2022/05/23 11:22:03;;;;;;;6.18;2.20;;;;;;;39.83;27.22;99650.25;5045555;28;20056;-68
2022/05/23 11:24:36;;;;;;;18.02;3.10;;;;;;;40.34;26.34;99638.25;5038508;28;20040;-68
2022/05/23 11:35:42;;;;;;;4.85;2.35;;;;;;;40.57;26.69;99622.50;5044378;28;20059;-68
2022/05/23 11:38:09;;;;;;;5.60;2.30;;;;;;;40.69;25.94;99625.25;5036743;28;20073;-69
2022/05/23 11:40:49;;;;;;;6.20;2.35;;;;;;;40.22;26.71;99629.84;5042813;28;20014;-68
2022/05/23 11:43:18;;;;;;;3.67;1.98;;;;;;;39.80;26.97;99629.31;5039885;28;20470;-68
2022/05/23 11:45:57;;;;;;;5.35;2.63;;;;;;;39.41;27.34;99625.22;5041336;28;20017;-68
2022/05/23 11:48:35;;;;;;;5.80;2.08;;;;;;;39.40;27.56;99611.53;5061569;28;20021;-68
2022/05/23 11:51:12;;;;;;;6.70;2.30;;;;;;;39.19;26.89;99608.84;5042029;28;20080;-67
2022/05/23 11:53:44;;;;;;;5.55;1.83;;;;;;;38.61;27.95;99614.75;5038788;28;20029;-68
2022/05/23 11:56:11;;;;;;;5.20;2.20;;;;;;;38.01;28.03;99604.84;5031643;28;20066;-68
2022/05/23 11:58:48;;;;;;;5.00;2.10;;;;;;;37.34;28.82;99613.28;5044331;28;20430;-67
2022/05/23 12:01:14;;;;;;;7.07;1.98;;;;;;;36.70;28.82;99615.25;5043670;28;20045;-68
2022/05/23 12:03:51;;;;;;;4.07;1.90;;;;;;;36.19;29.07;99619.72;5038687;28;20037;-68
2022/05/23 12:06:23;;;;;;;2.28;1.70;;;;;;;35.77;29.15;99606.50;5043233;28;20025;-68
2022/05/23 12:08:57;;;;;;;3.97;2.33;;;;;;;35.41;30.23;99597.53;5038651;28;20033;-67
2022/05/23 12:11:38;;;;;;;5.20;1.98;;;;;;;35.11;30.83;99601.19;5037529;28;20091;-68
2022/05/23 12:14:28;;;;;;;6.00;2.00;;;;;;;34.77;31.20;99602.63;5042054;28;20048;-68
2022/05/23 12:16:56;;;;;;;9.20;2.10;;;;;;;34.58;30.99;99590.06;5040533;28;20017;-68
2022/05/23 12:19:31;;;;;;;2.60;1.75;;;;;;;34.44;30.50;99588.16;5046100;28;20013;-67
2022/05/23 12:22:16;;;;;;;6.95;1.83;;;;;;;34.26;31.14;99591.09;5042329;28;20048;-67
2022/05/23 12:25:11;;;;;;;5.25;1.80;;;;;;;34.09;32.18;99582.66;5048242;28;20097;-68
2022/05/23 12:27:38;;;;;;;7.30;1.85;;;;;;;33.96;31.48;99593.47;5030474;28;20043;-68
2022/05/23 12:30:22;;;;;;;7.40;2.40;;;;;;;33.85;31.47;99586.50;5045612;28;20028;-68
2022/05/23 12:32:50;;;;;;;3.70;1.60;;;;;;;33.75;32.15;99603.38;5047471;28;20036;-67
2022/05/23 12:35:17;;;;;;;5.47;2.10;;;;;;;33.70;32.13;99597.94;5049999;28;20024;-68